Time;durP1;ratioP1;P1;durP2;ratioP2;P2;SDS_P1;SDS_P2;PMS_P1;PMS_P2;Temp;Humidity;BMP_temperature;BMP_pressure;BME280_temperature;BME280_humidity;BME280_pressure;Samples;Min_cycle;Max_cycle;Signal;HPM_P1;HPM_P2
2021/04/10 00:00:11;;;;;;;1999.90;999.90;;;;;;;9.26;100.00;-18156.13;4997994;28;20298;-68
2021/04/10 00:02:57;;;;;;;1999.90;999.90;;;;;;;9.22;100.00;-18155.06;4997819;28;20597;-68
2021/04/10 00:05:44;;;;;;;1999.90;999.90;;;;;;;9.17;100.00;-18153.84;4997561;28;20486;-68
2021/04/10 00:08:30;;;;;;;1999.90;999.90;;;;;;;9.18;100.00;-18154.00;4997401;28;20277;-69
2021/04/10 00:11:16;;;;;;;1999.90;999.90;;;;;;;9.11;100.00;-18152.09;4998099;28;20341;-68
2021/04/10 00:14:03;;;;;;;1999.90;999.90;;;;;;;9.03;100.00;-18150.09;4998108;28;20198;-68
2021/04/10 00:16:49;;;;;;;1999.90;999.90;;;;;;;9.54;100.00;-18163.50;4997639;28;20345;-68
2021/04/10 00:19:35;;;;;;;1999.90;999.90;;;;;;;9.53;100.00;-18163.22;4997236;28;20210;-68
2021/04/10 00:22:20;;;;;;;1999.90;999.90;;;;;;;9.44;100.00;-18160.94;4997093;28;20270;-67
2021/04/10 00:25:08;;;;;;;1999.90;999.90;;;;;;;9.88;100.00;-18172.59;4997620;28;20190;-68
2021/04/10 00:27:54;;;;;;;1999.90;999.90;;;;;;;9.45;100.00;-18161.06;4997782;28;20203;-68
2021/04/10 00:30:40;;;;;;;1999.90;999.90;;;;;;;9.40;100.00;-18159.88;4997209;28;20221;-69
2021/04/10 00:33:26;;;;;;;1999.90;999.90;;;;;;;9.57;100.00;-18164.28;4997022;28;20366;-68
2021/04/10 00:36:13;;;;;;;1999.90;999.90;;;;;;;9.90;100.00;-18172.97;4997769;28;20206;-69
2021/04/10 00:39:01;;;;;;;1999.90;999.90;;;;;;;10.16;100.00;-18179.94;4997556;28;20326;-69
2021/04/10 00:41:47;;;;;;;1999.90;999.90;;;;;;;10.38;98.75;-18185.69;4997028;28;20289;-69
2021/04/10 00:44:33;;;;;;;1999.90;999.90;;;;;;;10.43;99.87;-18187.03;4997300;28;20629;-68
2021/04/10 00:47:21;;;;;;;1999.90;999.90;;;;;;;10.10;98.76;-18178.34;4997315;28;20207;-69
2021/04/10 00:50:09;;;;;;;1999.90;999.90;;;;;;;9.38;100.00;-18159.34;4997055;28;20642;-69
2021/04/10 00:52:56;;;;;;;1999.90;999.90;;;;;;;9.47;100.00;-18161.63;4997284;28;20198;-68
2021/04/10 00:55:47;;;;;;;1999.90;999.90;;;;;;;9.81;100.00;-18170.72;4996659;28;20397;-69
2021/04/10 00:58:34;;;;;;;1999.90;999.90;;;;;;;10.05;100.00;-18176.88;4996742;28;20201;-69
2021/04/10 01:01:20;;;;;;;1999.90;999.90;;;;;;;9.98;100.00;-18175.25;4997108;28;20289;-69
2021/04/10 01:04:05;;;;;;;1999.90;999.90;;;;;;;9.92;100.00;-18173.53;4996425;28;20637;-69
2021/04/10 01:06:51;;;;;;;1999.90;999.90;;;;;;;9.38;100.00;-18159.22;4997181;28;20206;-69
2021/04/10 01:09:37;;;;;;;1999.90;999.90;;;;;;;9.17;100.00;-18153.84;4996768;28;20225;-69
2021/04/10 01:12:33;;;;;;;1999.90;999.90;;;;;;;8.99;100.00;-18149.16;4996856;28;20224;-69
2021/04/10 01:15:25;;;;;;;1999.90;999.90;;;;;;;8.70;100.00;-18141.25;4996933;28;20514;-70
2021/04/10 01:18:15;;;;;;;1999.90;999.90;;;;;;;8.76;100.00;-18143.00;4996904;28;20203;-69
2021/04/10 01:21:08;;;;;;;1999.90;999.90;;;;;;;8.54;100.00;-18137.13;4995858;28;20571;-69
2021/04/10 01:24:20;;;;;;;1999.90;999.90;;;;;;;9.04;100.00;-18150.38;4996648;28;20204;-69
2021/04/10 01:27:30;;;;;;;1999.90;999.90;;;;;;;9.60;100.00;-18165.09;4996623;28;20202;-69
2021/04/10 01:30:19;;;;;;;1999.90;999.90;;;;;;;9.36;100.00;-18158.66;4997752;28;20301;-69
2021/04/10 01:33:10;;;;;;;1999.90;999.90;;;;;;;9.17;100.00;-18153.84;5000949;28;20210;-69
2021/04/10 01:36:03;;;;;;;1999.90;999.90;;;;;;;9.16;100.00;-18153.44;5000543;28;20302;-69
2021/04/10 01:38:51;;;;;;;1999.90;999.90;;;;;;;8.95;100.00;-18148.09;5000393;28;20626;-69
2021/04/10 01:41:43;;;;;;;1999.90;999.90;;;;;;;9.05;100.00;-18150.63;5000350;28;20226;-69
2021/04/10 01:44:30;;;;;;;1999.90;999.90;;;;;;;8.77;100.00;-18143.16;5000732;28;20202;-69
2021/04/10 01:47:17;;;;;;;1999.90;999.90;;;;;;;8.51;100.00;-18136.31;5000193;28;20206;-69
2021/04/10 01:50:06;;;;;;;1999.90;999.90;;;;;;;8.60;100.00;-18138.72;5000139;28;20614;-69
2021/04/10 01:52:54;;;;;;;1999.90;999.90;;;;;;;8.79;100.00;-18143.69;5000629;28;20201;-69
2021/04/10 01:55:47;;;;;;;1999.90;999.90;;;;;;;8.77;100.00;-18143.16;5000115;28;20235;-69
2021/04/10 01:58:35;;;;;;;1999.90;999.90;;;;;;;8.38;100.00;-18132.97;5000145;28;20209;-69
2021/04/10 02:01:24;;;;;;;1999.90;999.90;;;;;;;8.06;100.00;-18124.38;5000286;28;20205;-69
2021/04/10 02:04:14;;;;;;;1999.90;999.90;;;;;;;7.89;100.00;-18119.97;5000268;28;20726;-69
2021/04/10 02:07:00;;;;;;;1999.90;999.90;;;;;;;7.85;100.00;-11834.59;5000308;28;20597;-70
2021/04/10 02:09:47;;;;;;;1999.90;999.90;;;;;;;8.08;100.00;-2527.31;4999936;28;20346;-70
2021/04/10 02:12:33;;;;;;;1999.90;999.90;;;;;;;8.04;100.00;4798.53;5000077;28;20208;-69
2021/04/10 02:15:19;;;;;;;1999.90;999.90;;;;;;;8.10;100.00;7186.59;4999660;28;20229;-69
2021/04/10 02:18:05;;;;;;;1999.90;999.90;;;;;;;7.73;100.00;9633.91;5000271;28;20206;-70
2021/04/10 02:20:55;;;;;;;1999.90;999.90;;;;;;;7.91;100.00;22511.97;4999900;28;20265;-69
2021/04/10 02:23:41;;;;;;;1999.90;999.90;;;;;;;7.89;100.00;24845.47;4999714;28;20208;-69
2021/04/10 02:26:27;;;;;;;1999.90;999.90;;;;;;;7.82;100.00;30187.31;4999753;28;20198;-69
2021/04/10 02:29:13;;;;;;;1999.90;999.90;;;;;;;7.72;100.00;34062.38;4999550;28;20204;-70
2021/04/10 02:32:06;;;;;;;1999.90;999.90;;;;;;;7.59;100.00;37679.19;4999383;28;20205;-69
2021/04/10 02:35:01;;;;;;;1999.90;999.90;;;;;;;7.82;100.00;50763.69;4999881;28;20245;-69
2021/04/10 02:37:48;;;;;;;1999.90;999.90;;;;;;;8.01;100.00;45781.13;4999266;28;20302;-70
2021/04/10 02:40:43;;;;;;;1999.90;999.90;;;;;;;7.97;100.00;42859.53;4999659;28;20218;-69
2021/04/10 02:43:30;;;;;;;1999.90;999.90;;;;;;;7.56;100.00;40381.88;4998392;28;20344;-69
2021/04/10 02:46:17;;;;;;;1999.90;999.90;;;;;;;7.57;100.00;53308.72;4999193;28;20668;-69
2021/04/10 02:49:05;;;;;;;1999.90;999.90;;;;;;;7.89;100.00;54406.59;4999414;28;20219;-69
2021/04/10 02:51:58;;;;;;;1999.90;999.90;;;;;;;7.75;100.00;44521.88;4999423;28;20209;-69
2021/04/10 02:54:49;;;;;;;1999.90;999.90;;;;;;;7.94;100.00;44709.34;4999440;28;20231;-69
2021/04/10 02:57:38;;;;;;;1999.90;999.90;;;;;;;7.72;100.00;41560.13;4999220;28;20198;-69
2021/04/10 03:00:28;;;;;;;1999.90;999.90;;;;;;;7.47;100.00;41686.88;4998959;28;20357;-70
2021/04/10 03:03:15;;;;;;;1999.90;999.90;;;;;;;7.73;100.00;42532.34;4998947;28;20218;-67
2021/04/10 03:06:03;;;;;;;1999.90;999.90;;;;;;;7.78;100.00;39476.75;4999149;28;20595;-69
2021/04/10 03:08:49;;;;;;;1999.90;999.90;;;;;;;7.67;100.00;38046.59;4998767;28;20194;-68
2021/04/10 03:11:36;;;;;;;1999.90;999.90;;;;;;;7.75;100.00;36754.56;4999123;28;20203;-68
2021/04/10 03:14:22;;;;;;;1999.90;999.90;;;;;;;7.59;100.00;35237.06;4998823;28;20350;-69
2021/04/10 03:17:11;;;;;;;1999.90;999.90;;;;;;;7.65;100.00;30757.53;4998718;28;20488;-69
2021/04/10 03:20:00;;;;;;;1999.90;999.90;;;;;;;7.60;100.00;28163.00;4998951;28;20199;-69
2021/04/10 03:22:47;;;;;;;1999.90;999.90;;;;;;;7.59;100.00;26833.25;4998904;28;20198;-69
2021/04/10 03:25:33;;;;;;;1999.90;999.90;;;;;;;7.60;100.00;25984.72;4999906;28;20198;-69
2021/04/10 03:28:20;;;;;;;1999.90;999.90;;;;;;;7.48;100.00;25213.78;4999936;28;20206;-68
2021/04/10 03:31:07;;;;;;;1999.90;999.90;;;;;;;7.55;100.00;24673.72;4998276;28;20514;-69
2021/04/10 03:33:53;;;;;;;1999.90;999.90;;;;;;;7.58;100.00;27502.28;4998509;28;20207;-68
2021/04/10 03:36:38;;;;;;;1999.90;999.90;;;;;;;7.40;100.00;23662.28;4998315;28;20213;-68
2021/04/10 03:39:25;;;;;;;1999.90;999.90;;;;;;;7.24;100.00;22475.00;4998727;28;20488;-68
2021/04/10 03:42:11;;;;;;;1999.90;999.90;;;;;;;7.49;100.00;25107.94;4998154;28;20266;-68
2021/04/10 03:44:57;;;;;;;1999.90;999.90;;;;;;;7.11;100.00;27936.84;4998283;28;20606;-68
2021/04/10 03:48:04;;;;;;;1999.90;999.90;;;;;;;7.44;100.00;18978.94;4998289;28;20204;-68
2021/04/10 03:50:52;;;;;;;1999.90;999.90;;;;;;;7.60;100.00;6455.06;4998103;28;20267;-68
2021/04/10 03:53:37;;;;;;;1999.90;999.90;;;;;;;7.51;100.00;3968.66;4997293;28;20199;-68
2021/04/10 03:56:23;;;;;;;1999.90;999.90;;;;;;;7.45;100.00;5354.75;4997916;28;20285;-68
2021/04/10 03:59:09;;;;;;;1999.90;999.90;;;;;;;7.21;100.00;5620.72;4998166;28;20269;-68
2021/04/10 04:01:58;;;;;;;1999.90;999.90;;;;;;;7.03;100.00;6783.75;4997949;28;20360;-67
2021/04/10 04:04:44;;;;;;;1999.90;999.90;;;;;;;7.13;100.00;8224.91;4997615;28;20245;-69
2021/04/10 04:07:29;;;;;;;1999.90;999.90;;;;;;;7.35;100.00;6255.59;4997471;28;20301;-69
2021/04/10 04:10:15;;;;;;;1999.90;999.90;;;;;;;7.23;100.00;1518.75;4997818;28;20202;-69
2021/04/10 04:13:01;;;;;;;1999.90;999.90;;;;;;;7.24;100.00;472.56;4997874;28;20195;-69
2021/04/10 04:15:46;;;;;;;1999.90;999.90;;;;;;;7.10;100.00;1016.28;4997819;28;20203;-68
2021/04/10 04:18:35;;;;;;;1999.90;999.90;;;;;;;7.07;100.00;4157.72;4997181;28;20210;-67
2021/04/10 04:21:20;;;;;;;1999.90;999.90;;;;;;;7.07;100.00;5528.56;4997481;28;20473;-69
2021/04/10 04:24:07;;;;;;;1999.90;999.90;;;;;;;7.61;100.00;3331.53;4997223;28;20212;-68
2021/04/10 04:26:53;;;;;;;1999.90;999.90;;;;;;;7.97;100.00;-13753.69;4998061;28;20566;-69
2021/04/10 04:29:45;;;;;;;1999.90;999.90;;;;;;;7.53;100.00;-17084.41;4998029;28;20203;-70
2021/04/10 04:32:30;;;;;;;1999.90;999.90;;;;;;;7.00;100.00;-9595.56;4997781;28;20265;-70
2021/04/10 04:35:17;;;;;;;1999.90;999.90;;;;;;;7.50;100.00;-4662.72;4997308;28;20257;-70
2021/04/10 04:38:03;;;;;;;1999.90;999.90;;;;;;;7.84;100.00;-15032.00;4997239;28;20202;-69
2021/04/10 04:40:48;;;;;;;1999.90;999.90;;;;;;;7.89;100.00;-18120.09;4997545;28;20582;-69
2021/04/10 04:43:34;;;;;;;1999.90;999.90;;;;;;;7.87;100.00;-18119.44;4996929;28;20201;-69
2021/04/10 04:46:20;;;;;;;1999.90;999.90;;;;;;;7.70;100.00;-18114.88;4997373;28;20226;-69
2021/04/10 04:49:07;;;;;;;1999.90;999.90;;;;;;;8.00;100.00;-18122.78;4997551;28;20202;-69
2021/04/10 04:51:58;;;;;;;1999.90;999.90;;;;;;;7.96;100.00;-18121.84;4997019;28;20589;-69
2021/04/10 04:54:44;;;;;;;1999.90;999.90;;;;;;;7.78;100.00;-18117.16;4997141;28;20209;-69
2021/04/10 04:57:31;;;;;;;1999.90;999.90;;;;;;;8.08;100.00;-18124.91;4997404;28;20198;-69
2021/04/10 05:00:17;;;;;;;1999.90;999.90;;;;;;;7.59;100.00;-18112.19;4996839;28;20203;-69
2021/04/10 05:03:04;;;;;;;1999.90;999.90;;;;;;;7.66;100.00;-18113.94;4997276;28;20202;-69
2021/04/10 05:05:50;;;;;;;1999.90;999.90;;;;;;;7.40;100.00;-18107.09;4996593;28;20377;-69
2021/04/10 05:08:36;;;;;;;1999.90;999.90;;;;;;;7.41;100.00;-18107.38;4997067;28;20258;-69
2021/04/10 05:11:22;;;;;;;1999.90;999.90;;;;;;;7.31;100.00;-18104.69;4996919;28;20207;-69
2021/04/10 05:14:09;;;;;;;1999.90;999.90;;;;;;;7.56;100.00;-18111.25;4997281;28;20227;-69
2021/04/10 05:16:54;;;;;;;1999.90;999.90;;;;;;;7.75;100.00;-18116.34;4996292;28;20605;-69
2021/04/10 05:19:40;;;;;;;1999.90;999.90;;;;;;;7.41;100.00;-18107.22;4996631;28;20621;-69
2021/04/10 05:22:26;;;;;;;1999.90;999.90;;;;;;;7.43;100.00;-18107.91;4996971;28;20207;-69
2021/04/10 05:25:13;;;;;;;1999.90;999.90;;;;;;;7.32;100.00;-18104.81;4996802;28;20231;-69
2021/04/10 05:27:59;;;;;;;1999.90;999.90;;;;;;;7.21;100.00;-18102.00;4996768;28;20198;-69
2021/04/10 05:30:46;;;;;;;1999.90;999.90;;;;;;;7.06;100.00;-18098.13;4996726;28;20603;-69
2021/04/10 05:33:32;;;;;;;1999.90;999.90;;;;;;;7.36;100.00;-18105.91;4996928;28;20595;-68
2021/04/10 05:36:18;;;;;;;1999.90;999.90;;;;;;;7.11;100.00;-18099.47;4996874;28;20245;-69
2021/04/10 05:39:04;;;;;;;1999.90;999.90;;;;;;;6.93;100.00;-18094.50;4996849;28;20591;-69
2021/04/10 05:41:52;;;;;;;1999.90;999.90;;;;;;;7.06;100.00;-18098.13;4996193;28;20198;-70
2021/04/10 05:44:38;;;;;;;1999.90;999.90;;;;;;;6.88;100.00;-17480.09;4996589;28;20470;-70
2021/04/10 05:47:24;;;;;;;1999.90;999.90;;;;;;;7.00;100.00;-15758.16;4996562;28;20206;-70
2021/04/10 05:50:11;;;;;;;1999.90;999.90;;;;;;;6.99;100.00;-16137.34;4996835;28;20609;-70
2021/04/10 05:52:57;;;;;;;1999.90;999.90;;;;;;;6.89;100.00;-14080.22;4995871;28;20198;-70
2021/04/10 05:55:43;;;;;;;1999.90;999.90;;;;;;;6.97;100.00;-13447.09;4996162;28;20281;-69
2021/04/10 05:58:29;;;;;;;1999.90;999.90;;;;;;;7.03;100.00;-12766.06;4996122;28;20581;-72
2021/04/10 06:01:15;;;;;;;1999.90;999.90;;;;;;;7.09;100.00;-10434.66;4996063;28;20579;-70
2021/04/10 06:04:01;;;;;;;1999.90;999.90;;;;;;;7.15;100.00;-10765.63;4996747;28;20513;-73
2021/04/10 06:06:46;;;;;;;1999.90;999.90;;;;;;;7.06;100.00;-8360.53;4996919;28;20226;-70
2021/04/10 06:09:32;;;;;;;1999.90;999.90;;;;;;;6.71;100.00;-6633.56;4996381;28;20614;-69
2021/04/10 06:12:18;;;;;;;1999.90;999.90;;;;;;;6.81;100.00;-2904.28;4996459;28;20202;-70
2021/04/10 06:15:06;;;;;;;1999.90;999.90;;;;;;;7.04;100.00;1083.69;4996229;28;20614;-70
2021/04/10 06:17:53;;;;;;;1999.90;999.90;;;;;;;7.32;100.00;-5383.41;4997985;28;20215;-69
2021/04/10 06:20:39;;;;;;;1999.90;999.90;;;;;;;6.78;100.00;-5272.72;4999889;28;20261;-70
2021/04/10 06:23:24;;;;;;;1999.90;999.90;;;;;;;7.11;100.00;-6203.53;4999315;28;20210;-71
2021/04/10 06:26:11;;;;;;;1999.90;999.90;;;;;;;7.08;100.00;-6939.25;4999733;28;20222;-69
2021/04/10 06:29:01;;;;;;;1999.90;999.90;;;;;;;6.99;100.00;-8527.38;4999269;28;20231;-70
2021/04/10 06:31:47;;;;;;;1999.90;999.90;;;;;;;7.38;100.00;-11109.09;4999602;28;20361;-70
2021/04/10 06:34:33;;;;;;;1999.90;999.90;;;;;;;7.30;100.00;-13723.34;4999686;28;20709;-70
2021/04/10 06:37:18;;;;;;;1999.90;999.90;;;;;;;7.30;100.00;-14590.50;4999446;28;20196;-70
2021/04/10 06:40:05;;;;;;;1999.90;999.90;;;;;;;7.20;100.00;-13978.91;4999215;28;20211;-71
2021/04/10 06:42:51;;;;;;;1999.90;999.90;;;;;;;7.35;100.00;-13641.75;4998946;28;20206;-70
2021/04/10 06:45:37;;;;;;;1999.90;999.90;;;;;;;7.03;100.00;-12833.63;4999774;28;20277;-70
2021/04/10 06:48:26;;;;;;;1999.90;999.90;;;;;;;7.49;100.00;-15879.13;5000015;28;20262;-70
2021/04/10 06:51:15;;;;;;;1999.90;999.90;;;;;;;7.34;100.00;-16759.97;4999659;28;20626;-70
2021/04/10 06:54:02;;;;;;;1999.90;999.90;;;;;;;7.57;100.00;-15213.63;4999033;28;20308;-70
2021/04/10 06:56:55;;;;;;;1999.90;999.90;;;;;;;7.35;100.00;-18103.88;4999579;28;20603;-70
2021/04/10 06:59:49;;;;;;;1999.90;999.90;;;;;;;6.79;100.00;-16252.53;4999342;28;20610;-70
2021/04/10 07:02:38;;;;;;;1999.90;999.90;;;;;;;7.08;100.00;-13993.88;4999319;28;20737;-69
2021/04/10 07:05:27;;;;;;;1999.90;999.90;;;;;;;7.18;100.00;-13561.06;4998514;28;20238;-70
2021/04/10 07:08:13;;;;;;;1999.90;999.90;;;;;;;7.32;100.00;-17880.72;4999028;28;20224;-70
2021/04/10 07:10:59;;;;;;;1999.90;999.90;;;;;;;7.56;100.00;-17784.66;4999307;28;20203;-69
2021/04/10 07:13:44;;;;;;;1999.90;999.90;;;;;;;7.45;100.00;-18108.44;4999268;28;20307;-69
2021/04/10 07:16:37;;;;;;;1999.90;999.90;;;;;;;6.74;100.00;-17845.69;4998705;28;20208;-68
2021/04/10 07:19:25;;;;;;;1999.90;999.90;;;;;;;7.04;100.00;-13248.53;4998727;28;20216;-70
2021/04/10 07:22:13;;;;;;;1999.90;999.90;;;;;;;7.00;100.00;-9973.25;4998908;28;20685;-68
2021/04/10 07:25:02;;;;;;;1999.90;999.90;;;;;;;7.88;100.00;-17983.00;4998459;28;20213;-69
2021/04/10 07:27:53;;;;;;;1999.90;999.90;;;;;;;7.60;100.00;-18112.47;4997822;28;20197;-66
2021/04/10 07:30:53;;;;;;;1999.90;999.90;;;;;;;7.61;100.00;-18112.59;5000177;28;20196;-69
2021/04/10 07:33:40;;;;;;;1999.90;999.90;;;;;;;7.57;100.00;-18111.66;4998533;28;20209;-69
2021/04/10 07:36:27;;;;;;;1999.90;999.90;;;;;;;6.93;100.00;-18094.63;4998182;28;20215;-68
2021/04/10 07:39:15;;;;;;;1999.90;999.90;;;;;;;7.25;100.00;-17097.63;4998520;28;20680;-68
2021/04/10 07:42:02;;;;;;;1999.90;999.90;;;;;;;7.54;100.00;-18110.72;4997929;28;20286;-68
2021/04/10 07:44:50;;;;;;;1999.90;999.90;;;;;;;7.55;100.00;-18111.00;4998828;28;20291;-68
2021/04/10 07:47:42;;;;;;;1999.90;999.90;;;;;;;7.30;100.00;-18104.28;4997865;28;20489;-68
2021/04/10 07:50:28;;;;;;;1999.90;999.90;;;;;;;7.38;100.00;-18106.44;4997758;28;20271;-68
2021/04/10 07:53:23;;;;;;;1999.90;999.90;;;;;;;7.74;100.00;-18116.09;4998057;28;20218;-68
2021/04/10 07:56:10;;;;;;;1999.90;999.90;;;;;;;7.65;100.00;-18113.66;4997318;28;20205;-68
2021/04/10 07:59:03;;;;;;;1999.90;999.90;;;;;;;7.61;100.00;-18112.59;4997740;28;20299;-68
2021/04/10 08:01:50;;;;;;;1999.90;999.90;;;;;;;7.84;100.00;-18118.75;4997812;28;20194;-70
2021/04/10 08:04:36;;;;;;;1999.90;999.90;;;;;;;8.20;100.00;-18128.13;4997088;28;20684;-69
2021/04/10 08:07:25;;;;;;;1999.90;999.90;;;;;;;7.61;100.00;-18112.72;4997584;28;20367;-68
2021/04/10 08:10:11;;;;;;;1999.90;999.90;;;;;;;7.94;100.00;-18121.44;4997806;28;20203;-68
2021/04/10 08:13:08;;;;;;;1999.90;999.90;;;;;;;7.58;100.00;-18111.94;4998909;28;20208;-68
2021/04/10 08:16:14;;;;;;;1999.90;999.90;;;;;;;7.59;100.00;-18112.19;4997541;28;20278;-69
2021/04/10 08:19:03;;;;;;;1999.90;999.90;;;;;;;8.40;100.00;-18133.50;4997074;28;20218;-68
2021/04/10 08:21:51;;;;;;;1999.90;999.90;;;;;;;8.22;100.00;-18128.81;4997417;28;20209;-68
2021/04/10 08:24:39;;;;;;;1999.90;999.90;;;;;;;8.05;100.00;-18124.13;4997090;28;20218;-68
2021/04/10 08:27:25;;;;;;;1999.90;999.90;;;;;;;8.08;100.00;-18125.06;4997042;28;20393;-68
2021/04/10 08:30:15;;;;;;;1999.90;999.90;;;;;;;8.18;100.00;-18127.59;4996455;28;20205;-68
2021/04/10 08:33:01;;;;;;;1999.90;999.90;;;;;;;8.30;100.00;-18130.81;4996507;28;20378;-69
2021/04/10 08:35:47;;;;;;;1999.90;999.90;;;;;;;8.44;100.00;-18134.56;4996477;28;20608;-69
2021/04/10 08:38:36;;;;;;;1999.90;999.90;;;;;;;8.16;100.00;-18127.19;4997016;28;20608;-69
2021/04/10 08:41:28;;;;;;;1999.90;999.90;;;;;;;7.99;100.00;-18122.66;4996597;28;20224;-69
2021/04/10 08:44:16;;;;;;;1999.90;999.90;;;;;;;8.32;100.00;-18131.22;4998888;28;20307;-68
2021/04/10 08:47:04;;;;;;;1999.90;999.90;;;;;;;8.66;100.00;-18140.19;4997211;28;20512;-69
2021/04/10 08:49:52;;;;;;;1999.90;999.90;;;;;;;8.13;100.00;-18126.41;4996641;28;20210;-70
2021/04/10 08:52:40;;;;;;;1999.90;999.90;;;;;;;8.04;100.00;-18123.84;4996743;28;20385;-69
2021/04/10 08:55:26;;;;;;;1999.90;999.90;;;;;;;8.74;100.00;-18142.34;4996319;28;20293;-70
2021/04/10 08:58:20;;;;;;;1999.90;999.90;;;;;;;9.05;100.00;-18150.50;4996218;28;20607;-70
2021/04/10 09:01:08;;;;;;;1999.90;999.90;;;;;;;8.84;100.00;-18145.16;4996454;28;20202;-70
2021/04/10 09:03:56;;;;;;;1999.90;999.90;;;;;;;8.35;100.00;-18132.16;4997115;28;20252;-70
2021/04/10 09:06:50;;;;;;;1999.90;999.90;;;;;;;8.88;100.00;-18146.09;4997989;28;20626;-70
2021/04/10 09:09:47;;;;;;;1999.90;999.90;;;;;;;8.98;100.00;-18148.91;4997833;28;20257;-70
2021/04/10 09:12:32;;;;;;;1999.90;999.90;;;;;;;9.06;100.00;-18150.91;4998135;28;20207;-69
2021/04/10 09:15:26;;;;;;;1999.90;999.90;;;;;;;9.35;100.00;-18158.41;4998531;28;20210;-71
2021/04/10 09:18:13;;;;;;;1999.90;999.90;;;;;;;9.08;100.00;-18151.31;4997325;28;20334;-68
2021/04/10 09:21:10;;;;;;;1999.90;999.90;;;;;;;9.35;100.00;-18158.53;4996573;28;20273;-69
2021/04/10 09:23:57;;;;;;;1999.90;999.90;;;;;;;8.54;100.00;-18137.25;4996175;28;20198;-69
2021/04/10 09:26:53;;;;;;;1999.90;999.90;;;;;;;8.79;100.00;-18143.69;4995802;28;20654;-69
2021/04/10 09:29:45;;;;;;;1999.90;999.90;;;;;;;8.84;100.00;-18145.00;4995527;28;20266;-67
2021/04/10 09:32:36;;;;;;;1999.90;999.90;;;;;;;8.98;100.00;-18148.91;4996393;28;20206;-69
2021/04/10 09:35:34;;;;;;;1999.90;999.90;;;;;;;9.50;100.00;-18162.41;4995727;28;20207;-69
2021/04/10 09:38:41;;;;;;;1999.90;999.90;;;;;;;9.77;100.00;-18169.50;4995913;28;20478;-69
2021/04/10 09:41:51;;;;;;;1999.90;999.90;;;;;;;9.91;100.00;-18173.38;4996272;28;20195;-69
2021/04/10 09:45:04;;;;;;;1999.90;999.90;;;;;;;10.08;100.00;-18177.66;4995963;28;20202;-69
2021/04/10 09:48:15;;;;;;;1999.90;999.90;;;;;;;10.95;100.00;-18200.81;4996088;28;20190;-69
2021/04/10 09:51:13;;;;;;;1999.90;999.90;;;;;;;9.90;100.00;-18173.13;4996714;28;20292;-69
2021/04/10 09:54:00;;;;;;;1999.90;999.90;;;;;;;9.62;100.00;-18165.75;5000090;28;20289;-69
2021/04/10 09:56:46;;;;;;;1999.90;999.90;;;;;;;8.65;100.00;-18140.06;5000237;28;20230;-69
2021/04/10 09:59:32;;;;;;;1999.90;999.90;;;;;;;9.54;100.00;-18163.50;4999650;28;20455;-69
2021/04/10 10:02:26;;;;;;;1999.90;999.90;;;;;;;10.22;100.00;-18181.41;4999669;28;20245;-69
2021/04/10 10:05:13;;;;;;;1999.90;999.90;;;;;;;9.94;100.00;-18174.19;5000067;28;20638;-69
2021/04/10 10:08:03;;;;;;;1999.90;999.90;;;;;;;10.12;100.00;-18178.75;4999975;28;20210;-69
2021/04/10 10:10:56;;;;;;;1999.90;999.90;;;;;;;10.16;100.00;-18179.81;4998970;28;20297;-69
2021/04/10 10:13:43;;;;;;;1999.90;999.90;;;;;;;9.86;100.00;-18171.91;5000050;28;20202;-69
2021/04/10 10:16:32;;;;;;;1999.90;999.90;;;;;;;10.11;100.00;-18178.47;4999970;28;20230;-69
2021/04/10 10:19:19;;;;;;;1999.90;999.90;;;;;;;10.17;100.00;-18180.06;5000456;28;20202;-70
2021/04/10 10:22:26;;;;;;;1999.90;999.90;;;;;;;10.23;100.00;-18181.69;5000177;28;20322;-70
2021/04/10 10:25:15;;;;;;;1999.90;999.90;;;;;;;9.52;100.00;-18163.09;5000110;28;20210;-70
2021/04/10 10:28:03;;;;;;;1999.90;999.90;;;;;;;9.21;100.00;-18154.91;4999580;28;20202;-69
2021/04/10 10:30:51;;;;;;;1999.90;999.90;;;;;;;9.48;100.00;-18162.00;4999552;28;20203;-71
2021/04/10 10:33:37;;;;;;;1999.90;999.90;;;;;;;10.02;100.00;-18176.31;4999737;28;20470;-72
2021/04/10 10:36:22;;;;;;;1999.90;999.90;;;;;;;10.28;100.00;-18183.16;4998478;28;20305;-72
2021/04/10 10:39:23;;;;;;;1999.90;999.90;;;;;;;10.05;100.00;-18176.88;4998490;28;20355;-72
2021/04/10 10:42:09;;;;;;;1999.90;999.90;;;;;;;10.38;100.00;-18185.69;4998940;28;20207;-72
2021/04/10 10:44:55;;;;;;;1999.90;999.90;;;;;;;10.26;100.00;-18182.50;4998896;28;20261;-72
2021/04/10 10:47:43;;;;;;;1999.90;999.90;;;;;;;10.41;100.00;-18186.50;4999101;28;20423;-72
2021/04/10 10:50:28;;;;;;;1999.90;999.90;;;;;;;10.65;100.00;-18192.78;4999013;28;20202;-72
2021/04/10 10:53:18;;;;;;;1999.90;999.90;;;;;;;10.09;100.00;-18178.06;4998693;28;20202;-72
2021/04/10 10:56:09;;;;;;;1999.90;999.90;;;;;;;10.06;100.00;-18177.25;4999306;28;20242;-72
2021/04/10 10:58:57;;;;;;;1999.90;999.90;;;;;;;9.91;100.00;-18173.38;4998811;28;20266;-72
2021/04/10 11:01:43;;;;;;;1999.90;999.90;;;;;;;10.07;100.00;-18177.41;4998729;28;20835;-72
2021/04/10 11:04:33;;;;;;;1999.90;999.90;;;;;;;10.45;100.00;-18187.44;4997616;28;20267;-72
2021/04/10 11:07:24;;;;;;;1999.90;999.90;;;;;;;9.85;100.00;-18171.66;4998633;28;20677;-71
2021/04/10 11:10:13;;;;;;;1999.90;999.90;;;;;;;10.40;100.00;-18186.09;4998561;28;20219;-72
2021/04/10 11:13:02;;;;;;;1999.90;999.90;;;;;;;10.63;100.00;-18192.25;4997703;28;20202;-72
2021/04/10 11:15:48;;;;;;;1999.90;999.90;;;;;;;10.86;100.00;-18198.41;4995777;28;20258;-72
2021/04/10 11:18:38;;;;;;;1999.90;999.90;;;;;;;11.20;100.00;-18207.34;4998098;28;20214;-72
2021/04/10 11:21:30;;;;;;;1999.90;999.90;;;;;;;11.02;100.00;-18202.53;4997440;28;20654;-72
2021/04/10 11:24:17;;;;;;;1999.90;999.90;;;;;;;10.54;100.00;-18189.84;4998011;28;20222;-71
2021/04/10 11:27:17;;;;;;;1999.90;999.90;;;;;;;10.77;100.00;-18195.84;4997169;28;20203;-72
2021/04/10 11:30:09;;;;;;;1999.90;999.90;;;;;;;11.61;100.00;-18218.03;4997576;28;20507;-72
2021/04/10 11:32:59;;;;;;;1999.90;999.90;;;;;;;11.45;100.00;-18213.75;4997585;28;20203;-71
2021/04/10 11:35:54;;;;;;;1999.90;999.90;;;;;;;11.50;100.00;-18215.09;4989783;28;20208;-70
2021/04/10 11:39:05;;;;;;;1999.90;999.90;;;;;;;11.07;100.00;-18203.88;4997458;28;20207;-70
2021/04/10 11:41:51;;;;;;;1999.90;999.90;;;;;;;11.20;100.00;-18207.22;4997960;28;20201;-71
2021/04/10 11:44:38;;;;;;;1999.90;999.90;;;;;;;11.07;100.00;-18203.88;4998232;28;20232;-70
2021/04/10 11:47:30;;;;;;;1999.90;999.90;;;;;;;11.35;100.00;-18211.38;4997804;28;20244;-71
2021/04/10 11:50:17;;;;;;;1999.90;999.90;;;;;;;12.07;100.00;-18230.19;4997695;28;20346;-70
2021/04/10 11:53:12;;;;;;;1999.90;999.90;;;;;;;11.73;100.00;-18221.25;4998001;28;20301;-70
2021/04/10 11:55:59;;;;;;;1999.90;999.90;;;;;;;11.23;100.00;-18208.16;4997589;28;20237;-70
2021/04/10 11:58:47;;;;;;;1999.90;999.90;;;;;;;11.79;100.00;-18222.72;4997615;28;20323;-70
2021/04/10 12:01:34;;;;;;;1999.90;999.90;;;;;;;11.28;100.00;-18209.50;4997361;28;20506;-71
2021/04/10 12:04:27;;;;;;;1999.90;999.90;;;;;;;11.67;100.00;-18219.63;4997731;28;20240;-70
2021/04/10 12:07:12;;;;;;;1999.90;999.90;;;;;;;10.98;100.00;-18201.59;4997576;28;20202;-70
2021/04/10 12:09:59;;;;;;;1999.90;999.90;;;;;;;10.78;100.00;-18196.25;4997215;28;20279;-70
2021/04/10 12:12:46;;;;;;;1999.90;999.90;;;;;;;10.87;100.00;-18198.66;4997456;28;20501;-70
2021/04/10 12:15:34;;;;;;;1999.90;999.90;;;;;;;10.54;100.00;-18189.97;4995435;28;20484;-69
2021/04/10 12:18:21;;;;;;;1999.90;999.90;;;;;;;10.72;100.00;-18194.66;4997566;28;20247;-70
2021/04/10 12:21:09;;;;;;;1999.90;999.90;;;;;;;11.01;100.00;-18202.28;4997019;28;20202;-70